| time (UTC) | temp C | wind direction | speed KPH | gust KPH | rain 1hr cm | rain 24hr cm | rain mn cm | humidity % | barometer mb |
| 20260906113637 | 20 | 46 | 9.7 | 14.5 | 0.00 | 0.00 | 0.00 | 8 | 992.1 |
| 20260906113137 | 20 | 45 | 11.3 | 14.5 | 0.00 | 0.00 | 0.00 | 8 | 992.1 |
| 20260906112637 | 20 | 55 | 11.3 | 14.5 | 0.00 | 0.00 | 0.00 | 8 | 992.1 |
| 20260906112137 | 20 | 43 | 11.3 | 19.3 | 0.00 | 0.00 | 0.00 | 8 | 992.1 |
| 20260906111637 | 20 | 49 | 11.3 | 17.7 | 0.00 | 0.00 | 0.00 | 8 | 991.9 |
| 20260906111137 | 20 | 45 | 12.9 | 14.5 | 0.00 | 0.00 | 0.00 | 8 | 991.9 |
| 20260906110637 | 20 | 59 | 11.3 | 11.3 | 0.00 | 0.00 | 0.00 | 8 | 991.9 |
| 20260906110137 | 20 | 52 | 11.3 | 16.1 | 0.00 | 0.00 | 0.00 | 8 | 991.7 |
| 20260906105637 | 20 | 52 | 12.9 | 17.7 | 0.00 | 0.00 | 0.00 | 8 | 991.7 |
| 20260906105137 | 20 | 49 | 11.3 | 14.5 | 0.00 | 0.00 | 0.00 | 8 | 991.4 |
| 20260906104637 | 20 | 49 | 12.9 | 17.7 | 0.00 | 0.00 | 0.00 | 8 | 991.4 |
| 20260906104138 | 20 | 70 | 11.3 | 14.5 | 0.00 | 0.00 | 0.00 | 8 | 991.5 |
| 20260906103638 | 20 | 49 | 11.3 | 14.5 | 0.00 | 0.00 | 0.00 | 8 | 991.6 |
| 20260906103138 | 21 | 37 | 12.9 | 20.9 | 0.00 | 0.00 | 0.00 | 8 | 991.6 |
| 20260906102638 | 21 | 54 | 16.1 | 20.9 | 0.00 | 0.00 | 0.00 | 8 | 991.4 |
| 20260906102138 | 21 | 39 | 17.7 | 20.9 | 0.00 | 0.00 | 0.00 | 8 | 991.4 |
| 20260906101638 | 21 | 42 | 14.5 | 20.9 | 0.00 | 0.00 | 0.00 | 8 | 991.4 |
| 20260906101138 | 21 | 52 | 14.5 | 20.9 | 0.00 | 0.00 | 0.00 | 8 | 991.4 |
| 20260906100638 | 21 | 43 | 16.1 | 20.9 | 0.00 | 0.00 | 0.00 | 8 | 991.4 |
| 20260906100138 | 21 | 64 | 12.9 | 20.9 | 0.00 | 0.00 | 0.00 | 8 | 991.4 |
| 20260906095638 | 21 | 54 | 16.1 | 20.9 | 0.00 | 0.00 | 0.00 | 8 | 991.4 |
| 20260906095138 | 21 | 57 | 14.5 | 17.7 | 0.00 | 0.00 | 0.00 | 8 | 991.4 |
| 20260906094638 | 21 | 52 | 14.5 | 22.5 | 0.00 | 0.00 | 0.00 | 8 | 991.4 |
| 20260906094138 | 21 | 58 | 16.1 | 25.7 | 0.00 | 0.00 | 0.00 | 8 | 991.4 |
| 20260906093638 | 21 | 60 | 17.7 | 25.7 | 0.00 | 0.00 | 0.00 | 8 | 991.4 |
| 20260906093138 | 21 | 43 | 12.9 | 17.7 | 0.00 | 0.00 | 0.00 | 8 | 991.4 |
| 20260906092638 | 21 | 51 | 12.9 | 22.5 | 0.00 | 0.00 | 0.00 | 8 | 991.2 |
| 20260906092138 | 21 | 41 | 14.5 | 22.5 | 0.00 | 0.00 | 0.00 | 8 | 991.2 |
| 20260906091638 | 21 | 46 | 11.3 | 14.5 | 0.00 | 0.00 | 0.00 | 8 | 991.6 |
| 20260906091138 | 21 | 30 | 12.9 | 17.7 | 0.00 | 0.00 | 0.00 | 8 | 991.6 |
| 20260906090637 | 21 | 44 | 9.7 | 14.5 | 0.00 | 0.00 | 0.00 | 8 | 991.6 |
| 20260906090138 | 21 | 31 | 9.7 | 14.5 | 0.00 | 0.00 | 0.00 | 8 | 991.4 |
| 20260906085637 | 21 | 27 | 8.0 | 14.5 | 0.00 | 0.00 | 0.00 | 8 | 991.4 |
| 20260906085137 | 21 | 39 | 6.4 | 9.7 | 0.00 | 0.00 | 0.00 | 8 | 991.4 |
| 20260906084637 | 21 | 55 | 9.7 | 12.9 | 0.00 | 0.00 | 0.00 | 8 | 991.4 |
| 20260906084137 | 21 | 28 | 9.7 | 14.5 | 0.00 | 0.00 | 0.00 | 8 | 991.5 |
| 20260906083637 | 21 | 41 | 8.0 | 11.3 | 0.00 | 0.00 | 0.00 | 8 | 991.6 |
| 20260906083137 | 21 | 39 | 8.0 | 11.3 | 0.00 | 0.00 | 0.00 | 8 | 991.5 |
| 20260906082637 | 21 | 35 | 8.0 | 11.3 | 0.00 | 0.00 | 0.00 | 8 | 991.4 |
| 20260906082137 | 22 | 40 | 6.4 | 9.7 | 0.00 | 0.00 | 0.00 | 7 | 991.4 |
| 20260906081637 | 22 | 31 | 8.0 | 11.3 | 0.00 | 0.00 | 0.00 | 7 | 991.2 |
| 20260906081137 | 22 | 29 | 8.0 | 12.9 | 0.00 | 0.00 | 0.00 | 7 | 991.2 |
| 20260906080637 | 22 | 26 | 6.4 | 9.7 | 0.00 | 0.00 | 0.00 | 7 | 991.0 |
| 20260906080137 | 22 | 39 | 6.4 | 11.3 | 0.00 | 0.00 | 0.00 | 7 | 990.9 |
| 20260906075637 | 22 | 45 | 6.4 | 11.3 | 0.00 | 0.00 | 0.00 | 7 | 991.0 |
| 20260906075137 | 22 | 39 | 8.0 | 12.9 | 0.00 | 0.00 | 0.00 | 7 | 991.1 |
| 20260906074637 | 22 | 30 | 8.0 | 11.3 | 0.00 | 0.00 | 0.00 | 7 | 991.1 |
| 20260906074137 | 22 | 34 | 8.0 | 9.7 | 0.00 | 0.00 | 0.00 | 7 | 991.2 |
| 20260906073637 | 22 | 40 | 8.0 | 12.9 | 0.00 | 0.00 | 0.00 | 7 | 991.2 |
| 20260906073137 | 22 | 52 | 9.7 | 14.5 | 0.00 | 0.00 | 0.00 | 7 | 991.2 |
| 20260906072637 | 22 | 50 | 9.7 | 12.9 | 0.00 | 0.00 | 0.00 | 7 | 991.2 |
| 20260906072137 | 22 | 32 | 11.3 | 16.1 | 0.00 | 0.00 | 0.00 | 7 | 991.2 |
| 20260906071637 | 22 | 41 | 11.3 | 14.5 | 0.00 | 0.00 | 0.00 | 7 | 991.4 |
| 20260906071137 | 22 | 54 | 11.3 | 17.7 | 0.00 | 0.00 | 0.00 | 7 | 991.4 |
| 20260906070637 | -17 | 45 | 11.3 | 11.3 | 0.00 | 0.00 | 0.00 | 100 | |
| 20260906070137 | 22 | 43 | 11.3 | 14.5 | 0.00 | 0.00 | 0.00 | 7 | 991.4 |
| 20260906065637 | 22 | 42 | 12.9 | 16.1 | 0.00 | 0.00 | 0.00 | 7 | 991.4 |
| 20260906065137 | 22 | 38 | 11.3 | 14.5 | 0.00 | 0.00 | 0.00 | 7 | 991.7 |
| 20260906064637 | 22 | 36 | 11.3 | 14.5 | 0.00 | 0.00 | 0.00 | 7 | 991.7 |
| 20260906064137 | 22 | 31 | 9.7 | 12.9 | 0.00 | 0.00 | 0.00 | 7 | 991.6 |
| 20260906063637 | 21 | 45 | 9.7 | 14.5 | 0.00 | 0.00 | 0.00 | 7 | 991.6 |
| 20260906063137 | 21 | 33 | 9.7 | 12.9 | 0.00 | 0.00 | 0.00 | 7 | 991.6 |
| 20260906062638 | 21 | 37 | 9.7 | 12.9 | 0.00 | 0.00 | 0.00 | 7 | 991.7 |
| 20260906062138 | 21 | 33 | 11.3 | 16.1 | 0.00 | 0.00 | 0.00 | 7 | 991.7 |
| 20260906061638 | 21 | 32 | 9.7 | 12.9 | 0.00 | 0.00 | 0.00 | 7 | 991.5 |
| 20260906061138 | 21 | 50 | 11.3 | 14.5 | 0.00 | 0.00 | 0.00 | 7 | 991.4 |
| 20260906060638 | 21 | 42 | 9.7 | 12.9 | 0.00 | 0.00 | 0.00 | 7 | 991.4 |
| 20260906060138 | 21 | 47 | 9.7 | 12.9 | 0.00 | 0.00 | 0.00 | 7 | 991.4 |
| 20260906055638 | 21 | 37 | 9.7 | 14.5 | 0.00 | 0.00 | 0.00 | 7 | 991.4 |
| 20260906055138 | 21 | 39 | 12.9 | 16.1 | 0.00 | 0.00 | 0.00 | 7 | 991.2 |
| 20260906054638 | 21 | 37 | 12.9 | 16.1 | 0.00 | 0.00 | 0.00 | 7 | 991.2 |
| 20260906054138 | 21 | 32 | 11.3 | 14.5 | 0.00 | 0.00 | 0.00 | 7 | 991.1 |
| 20260906053638 | 21 | 39 | 12.9 | 14.5 | 0.00 | 0.00 | 0.00 | 7 | 991.1 |
| 20260906053138 | 21 | 36 | 11.3 | 16.1 | 0.00 | 0.00 | 0.00 | 7 | 991.1 |
| 20260906052638 | 21 | 42 | 12.9 | 16.1 | 0.00 | 0.00 | 0.00 | 7 | 991.2 |
| 20260906052138 | 21 | 47 | 9.7 | 12.9 | 0.00 | 0.00 | 0.00 | 7 | 991.2 |
| 20260906051638 | 21 | 37 | 11.3 | 14.5 | 0.00 | 0.00 | 0.00 | 7 | 991.2 |
| 20260906051138 | 21 | 39 | 9.7 | 16.1 | 0.00 | 0.00 | 0.00 | 7 | 991.2 |
| 20260906050638 | 21 | 38 | 11.3 | 14.5 | 0.00 | 0.00 | 0.00 | 7 | 991.2 |
| 20260906050138 | 21 | 42 | 11.3 | 19.3 | 0.00 | 0.00 | 0.00 | 7 | 991.2 |
| 20260906045637 | 21 | 27 | 12.9 | 17.7 | 0.00 | 0.00 | 0.00 | 7 | 991.2 |
| 20260906045138 | 21 | 29 | 12.9 | 19.3 | 0.00 | 0.00 | 0.00 | 7 | 990.9 |
| 20260906044637 | 21 | 27 | 12.9 | 20.9 | 0.00 | 0.00 | 0.00 | 7 | 990.9 |
| 20260906044137 | 21 | 45 | 12.9 | 19.3 | 0.00 | 0.00 | 0.00 | 7 | 991.1 |
| 20260906043637 | 21 | 56 | 12.9 | 16.1 | 0.00 | 0.00 | 0.00 | 7 | 991.1 |
| 20260906043137 | 21 | 25 | 12.9 | 24.1 | 0.00 | 0.00 | 0.00 | 7 | 991.0 |
| 20260906042637 | 21 | 41 | 12.9 | 20.9 | 0.00 | 0.00 | 0.00 | 7 | 990.9 |
| 20260906042137 | 22 | 22 | 12.9 | 12.9 | 0.00 | 0.00 | 0.00 | 7 | 990.9 |
| 20260906041637 | 22 | 70 | 14.5 | 19.3 | 0.00 | 0.00 | 0.00 | 7 | 990.9 |
| 20260906041137 | 22 | 56 | 14.5 | 20.9 | 0.00 | 0.00 | 0.00 | 7 | 990.9 |
| 20260906040637 | 22 | 42 | 11.3 | 17.7 | 0.00 | 0.00 | 0.00 | 7 | 990.9 |
| 20260906040137 | 22 | 51 | 14.5 | 20.9 | 0.00 | 0.00 | 0.00 | 7 | 990.9 |
| 20260906035637 | 22 | 36 | 16.1 | 22.5 | 0.00 | 0.00 | 0.00 | 7 | 990.9 |
| 20260906035137 | 22 | 45 | 14.5 | 19.3 | 0.00 | 0.00 | 0.00 | 7 | 990.9 |
| 20260906034637 | 22 | 32 | 17.7 | 19.3 | 0.00 | 0.00 | 0.00 | 7 | 990.9 |
| 20260906034137 | 22 | 50 | 12.9 | 19.3 | 0.00 | 0.00 | 0.00 | 7 | 990.9 |
| 20260906033637 | 22 | 38 | 14.5 | 20.9 | 0.00 | 0.00 | 0.00 | 7 | 990.9 |
| 20260906033137 | 22 | 47 | 16.1 | 17.7 | 0.00 | 0.00 | 0.00 | 7 | 990.8 |
| 20260906032637 | 22 | 68 | 11.3 | 16.1 | 0.00 | 0.00 | 0.00 | 7 | 990.7 |
| 20260906032137 | 22 | 33 | 14.5 | 19.3 | 0.00 | 0.00 | 0.00 | 7 | 990.7 |
| 20260906031637 | 22 | 31 | 16.1 | 20.9 | 0.00 | 0.00 | 0.00 | 7 | 990.6 |
| 20260906031137 | 22 | 25 | 14.5 | 20.9 | 0.00 | 0.00 | 0.00 | 7 | 990.6 |
| 20260906030637 | 22 | 36 | 17.7 | 24.1 | 0.00 | 0.00 | 0.00 | 7 | 990.5 |
| 20260906030137 | 22 | 50 | 17.7 | 24.1 | 0.00 | 0.00 | 0.00 | 7 | 990.4 |
| 20260906025637 | 23 | 50 | 17.7 | 22.5 | 0.00 | 0.00 | 0.00 | 6 | 990.4 |
| 20260906025137 | 23 | 54 | 16.1 | 19.3 | 0.00 | 0.00 | 0.00 | 6 | 990.4 |
| 20260906024637 | 23 | 56 | 16.1 | 22.5 | 0.00 | 0.00 | 0.00 | 6 | 990.4 |
| 20260906024137 | 23 | 39 | 16.1 | 20.9 | 0.00 | 0.00 | 0.00 | 6 | 990.4 |
| 20260906023637 | 23 | 41 | 17.7 | 20.9 | 0.00 | 0.00 | 0.00 | 6 | 990.4 |
| 20260906023137 | 23 | 0 | 16.1 | 16.1 | 0.00 | 0.00 | 0.00 | 6 | 990.4 |
| 20260906022637 | 23 | 36 | 17.7 | 24.1 | 0.00 | 0.00 | 0.00 | 6 | 990.4 |
| 20260906022138 | 23 | 36 | 19.3 | 25.7 | 0.00 | 0.00 | 0.00 | 6 | 990.4 |
| 20260906021638 | 23 | 25 | 16.1 | 20.9 | 0.00 | 0.00 | 0.00 | 6 | 990.2 |
| 20260906021138 | 24 | 42 | 14.5 | 20.9 | 0.00 | 0.00 | 0.00 | 6 | 990.2 |
| 20260906020638 | 24 | 45 | 17.7 | 24.1 | 0.00 | 0.00 | 0.00 | 6 | 990.2 |
| 20260906020138 | 24 | 63 | 16.1 | 19.3 | 0.00 | 0.00 | 0.00 | 6 | 990.2 |
| 20260906015638 | 24 | 30 | 12.9 | 17.7 | 0.00 | 0.00 | 0.00 | 6 | 990.2 |
| 20260906015138 | 25 | 26 | 11.3 | 16.1 | 0.00 | 0.00 | 0.00 | 6 | 989.9 |
| 20260906014638 | 25 | 46 | 12.9 | 20.9 | 0.00 | 0.00 | 0.00 | 6 | 989.9 |
| 20260906014138 | 25 | 40 | 16.1 | 20.9 | 0.00 | 0.00 | 0.00 | 6 | 989.9 |
| 20260906013638 | 25 | 40 | 20.9 | 29.0 | 0.00 | 0.00 | 0.00 | 6 | 989.9 |
| 20260906013138 | 25 | 26 | 19.3 | 25.7 | 0.00 | 0.00 | 0.00 | 6 | 989.8 |
| 20260906012638 | 25 | 34 | 14.5 | 17.7 | 0.00 | 0.00 | 0.00 | 6 | 989.7 |
| 20260906012138 | 26 | 36 | 12.9 | 17.7 | 0.00 | 0.00 | 0.00 | 6 | 989.7 |
| 20260906011638 | 26 | 31 | 14.5 | 19.3 | 0.00 | 0.00 | 0.00 | 6 | 989.6 |
| 20260906011138 | 26 | 36 | 12.9 | 20.9 | 0.00 | 0.00 | 0.00 | 6 | 989.6 |
| 20260906010638 | 26 | 33 | 14.5 | 16.1 | 0.00 | 0.00 | 0.00 | 6 | 989.4 |
| 20260906010138 | 26 | 34 | 19.3 | 24.1 | 0.00 | 0.00 | 0.00 | 6 | 989.2 |
| 20260906005638 | 26 | 42 | 14.5 | 17.7 | 0.00 | 0.00 | 0.00 | 6 | 989.2 |
| 20260906005137 | 26 | 42 | 14.5 | 19.3 | 0.00 | 0.00 | 0.00 | 6 | 989.2 |
| 20260906004637 | 27 | 36 | 12.9 | 17.7 | 0.00 | 0.00 | 0.00 | 6 | 989.2 |
| 20260906004137 | 27 | 28 | 12.9 | 24.1 | 0.00 | 0.00 | 0.00 | 6 | 989.2 |
| 20260906003637 | 27 | 27 | 14.5 | 19.3 | 0.00 | 0.00 | 0.00 | 6 | 989.2 |
| 20260906003137 | 27 | 45 | 16.1 | 17.7 | 0.00 | 0.00 | 0.00 | 6 | 989.1 |
| 20260906002637 | 27 | 29 | 16.1 | 27.4 | 0.00 | 0.00 | 0.00 | 6 | 989.0 |
| 20260906002137 | 27 | 29 | 14.5 | 19.3 | 0.00 | 0.00 | 0.00 | 6 | 989.0 |
| 20260906001637 | 28 | 37 | 16.1 | 22.5 | 0.00 | 0.00 | 0.00 | 6 | 989.0 |
| 20260906001137 | 28 | 39 | 12.9 | 19.3 | 0.00 | 0.00 | 0.00 | 6 | 989.0 |
| 20260906000637 | 28 | 39 | 22.5 | 25.7 | 0.00 | 0.00 | 0.00 | 6 | 989.0 |
| 20260906000137 | 28 | 30 | 16.1 | 20.9 | 0.00 | 0.00 | 0.00 | 6 | 988.9 |
| 20260905235637 | 29 | 44 | 20.9 | 27.4 | 0.00 | 0.00 | 0.00 | 6 | 988.9 |
| 20260905235137 | 29 | 25 | 19.3 | 25.7 | 0.00 | 0.00 | 0.00 | 6 | 988.9 |
| 20260905234637 | 30 | 36 | 17.7 | 32.2 | 0.00 | 0.00 | 0.00 | 5 | 988.9 |
| 20260905234137 | 30 | 29 | 19.3 | 29.0 | 0.00 | 0.00 | 0.00 | 5 | 988.7 |
| 20260905233637 | 31 | 34 | 11.3 | 22.5 | 0.00 | 0.00 | 0.00 | 5 | 988.7 |
| 20260905233137 | 32 | 20 | 6.4 | 12.9 | 0.00 | 0.00 | 0.00 | 5 | 988.6 |
| 20260905232637 | 32 | 335 | 4.8 | 8.0 | 0.00 | 0.00 | 0.00 | 5 | 988.5 |
| 20260905232137 | 32 | 347 | 8.0 | 12.9 | 0.00 | 0.00 | 0.00 | 5 | 988.5 |
| 20260905231637 | 33 | 11 | 6.4 | 12.9 | 0.00 | 0.00 | 0.00 | 5 | 988.4 |
| 20260905231137 | 33 | 35 | 6.4 | 12.9 | 0.00 | 0.00 | 0.00 | 5 | 988.4 |
| 20260905230637 | 34 | 18 | 4.8 | 8.0 | 0.00 | 0.00 | 0.00 | 5 | 988.3 |
| 20260905230137 | 34 | 316 | 4.8 | 8.0 | 0.00 | 0.00 | 0.00 | 5 | 988.2 |
| 20260905225637 | 35 | 0 | 6.4 | 11.3 | 0.00 | 0.00 | 0.00 | 5 | 988.2 |
| 20260905225137 | 35 | 258 | 3.2 | 4.8 | 0.00 | 0.00 | 0.00 | 5 | 988.2 |
| 20260905224637 | 34 | 14 | 3.2 | 6.4 | 0.00 | 0.00 | 0.00 | 5 | 988.2 |
| 20260905224137 | 34 | 326 | 6.4 | 14.5 | 0.00 | 0.00 | 0.00 | 5 | 988.4 |
| 20260905223637 | 34 | 28 | 6.4 | 12.9 | 0.00 | 0.00 | 0.00 | 5 | 988.4 |
| 20260905223137 | 35 | 334 | 6.4 | 11.3 | 0.00 | 0.00 | 0.00 | 5 | 988.4 |
| 20260905222637 | 34 | 337 | 4.8 | 12.9 | 0.00 | 0.00 | 0.00 | 5 | 988.4 |
| 20260905222138 | 35 | 349 | 8.0 | 12.9 | 0.00 | 0.00 | 0.00 | 5 | 988.4 |
| 20260905221638 | 34 | 313 | 4.8 | 8.0 | 0.00 | 0.00 | 0.00 | 5 | 988.4 |
| 20260905221138 | 34 | 23 | 12.9 | 17.7 | 0.00 | 0.00 | 0.00 | 5 | 988.4 |
| 20260905220638 | 35 | 1 | 6.4 | 11.3 | 0.00 | 0.00 | 0.00 | 5 | 988.3 |
| 20260905220138 | 35 | 316 | 3.2 | 6.4 | 0.00 | 0.00 | 0.00 | 5 | 988.2 |
| 20260905215638 | 35 | 18 | 6.4 | 12.9 | 0.00 | 0.00 | 0.00 | 5 | 988.2 |
| 20260905215138 | 35 | 316 | 4.8 | 9.7 | 0.00 | 0.00 | 0.00 | 5 | 988.2 |
| 20260905214638 | 35 | 30 | 8.0 | 17.7 | 0.00 | 0.00 | 0.00 | 5 | 988.2 |
| 20260905214138 | 35 | 22 | 9.7 | 16.1 | 0.00 | 0.00 | 0.00 | 5 | 988.2 |
| 20260905213638 | 36 | 27 | 8.0 | 12.9 | 0.00 | 0.00 | 0.00 | 5 | 988.2 |
| 20260905213138 | 36 | 358 | 8.0 | 14.5 | 0.00 | 0.00 | 0.00 | 5 | 988.2 |
| 20260905212638 | 36 | 342 | 3.2 | 11.3 | 0.00 | 0.00 | 0.00 | 5 | 988.4 |
| 20260905212138 | 36 | 0 | 6.4 | 9.7 | 0.00 | 0.00 | 0.00 | 5 | 988.4 |
| 20260905211638 | 36 | 292 | 4.8 | 8.0 | 0.00 | 0.00 | 0.00 | 5 | 988.4 |
| 20260905211138 | 35 | 326 | 4.8 | 9.7 | 0.00 | 0.00 | 0.00 | 5 | 988.4 |
| 20260905210638 | 36 | 28 | 9.7 | 12.9 | 0.00 | 0.00 | 0.00 | 5 | 988.4 |
| 20260905210137 | 36 | 344 | 4.8 | 11.3 | 0.00 | 0.00 | 0.00 | 5 | 988.4 |
| 20260905205638 | 36 | 316 | 6.4 | 9.7 | 0.00 | 0.00 | 0.00 | 5 | 988.4 |
| 20260905205137 | 36 | 19 | 6.4 | 12.9 | 0.00 | 0.00 | 0.00 | 5 | 988.4 |
| 20260905204637 | 36 | 2 | 6.4 | 9.7 | 0.00 | 0.00 | 0.00 | 5 | 988.4 |
| 20260905204137 | 36 | 22 | 6.4 | 9.7 | 0.00 | 0.00 | 0.00 | 5 | 988.5 |
| 20260905203637 | 36 | 18 | 6.4 | 12.9 | 0.00 | 0.00 | 0.00 | 5 | 988.5 |
| 20260905203137 | 36 | 27 | 8.0 | 11.3 | 0.00 | 0.00 | 0.00 | 5 | 988.5 |
| 20260905202637 | 36 | 5 | 4.8 | 9.7 | 0.00 | 0.00 | 0.00 | 5 | 988.5 |
| 20260905202137 | 36 | 315 | 3.2 | 6.4 | 0.00 | 0.00 | 0.00 | 5 | 988.5 |
| 20260905201637 | 36 | 331 | 4.8 | 9.7 | 0.00 | 0.00 | 0.00 | 5 | 988.4 |
| 20260905201137 | 37 | 273 | 4.8 | 8.0 | 0.00 | 0.00 | 0.00 | 4 | 988.4 |
| 20260905200637 | 38 | 319 | 3.2 | 6.4 | 0.00 | 0.00 | 0.00 | 4 | 988.5 |
| 20260905200137 | 38 | 244 | 4.8 | 6.4 | 0.00 | 0.00 | 0.00 | 4 | 988.5 |
| 20260905195637 | 38 | 280 | 6.4 | 9.7 | 0.00 | 0.00 | 0.00 | 4 | 988.5 |
| 20260905195137 | 38 | 321 | 6.4 | 9.7 | 0.00 | 0.00 | 0.00 | 4 | 988.5 |
| 20260905194637 | 38 | 350 | 4.8 | 9.7 | 0.00 | 0.00 | 0.00 | 4 | 988.5 |
| 20260905194137 | 38 | 358 | 4.8 | 9.7 | 0.00 | 0.00 | 0.00 | 4 | 988.7 |
| 20260905193637 | 38 | 310 | 4.8 | 9.7 | 0.00 | 0.00 | 0.00 | 4 | 988.7 |
| 20260905193137 | 38 | 247 | 6.4 | 12.9 | 0.00 | 0.00 | 0.00 | 4 | 988.7 |
| 20260905192637 | 38 | 273 | 6.4 | 9.7 | 0.00 | 0.00 | 0.00 | 4 | 988.9 |
| 20260905192137 | 38 | 321 | 4.8 | 9.7 | 0.00 | 0.00 | 0.00 | 4 | 988.9 |
| 20260905191637 | 38 | 9 | 8.0 | 11.3 | 0.00 | 0.00 | 0.00 | 4 | 988.9 |
| 20260905191137 | 38 | 3 | 6.4 | 16.1 | 0.00 | 0.00 | 0.00 | 4 | 988.9 |
| 20260905190637 | 39 | 289 | 4.8 | 6.4 | 0.00 | 0.00 | 0.00 | 4 | 989.0 |
| 20260905190137 | 38 | 23 | 4.8 | 8.0 | 0.00 | 0.00 | 0.00 | 4 | 989.0 |
| 20260905185637 | 39 | 15 | 6.4 | 12.9 | 0.00 | 0.00 | 0.00 | 4 | 989.1 |
| 20260905185137 | 38 | 243 | 3.2 | 6.4 | 0.00 | 0.00 | 0.00 | 4 | 989.2 |
| 20260905184637 | 38 | 2 | 4.8 | 8.0 | 0.00 | 0.00 | 0.00 | 4 | 989.2 |
| 20260905184137 | 38 | 359 | 4.8 | 6.4 | 0.00 | 0.00 | 0.00 | 4 | 989.2 |
| 20260905183637 | 38 | 259 | 4.8 | 8.0 | 0.00 | 0.00 | 0.00 | 4 | 989.2 |
| 20260905183137 | 38 | 279 | 3.2 | 3.2 | 0.00 | 0.00 | 0.00 | 4 | 989.2 |
| 20260905182638 | 38 | 264 | 6.4 | 14.5 | 0.00 | 0.00 | 0.00 | 4 | 989.2 |
| 20260905182138 | 38 | 288 | 4.8 | 8.0 | 0.00 | 0.00 | 0.00 | 4 | 989.2 |
| 20260905181638 | 37 | 327 | 4.8 | 11.3 | 0.00 | 0.00 | 0.00 | 4 | 989.4 |
| 20260905181138 | 36 | 350 | 4.8 | 12.9 | 0.00 | 0.00 | 0.00 | 4 | 989.4 |
| 20260905180638 | 36 | 334 | 3.2 | 6.4 | 0.00 | 0.00 | 0.00 | 4 | 989.4 |
| 20260905180138 | 36 | 339 | 4.8 | 9.7 | 0.00 | 0.00 | 0.00 | 4 | 989.4 |
| 20260905175638 | 37 | 3 | 6.4 | 12.9 | 0.00 | 0.00 | 0.00 | 4 | 989.4 |
| 20260905175138 | 37 | 282 | 4.8 | 8.0 | 0.00 | 0.00 | 0.00 | 4 | 989.4 |
| 20260905174638 | 37 | 351 | 6.4 | 9.7 | 0.00 | 0.00 | 0.00 | 4 | 989.4 |
| 20260905174138 | 37 | 267 | 4.8 | 6.4 | 0.00 | 0.00 | 0.00 | 4 | 989.4 |
| 20260905173638 | 37 | 265 | 4.8 | 9.7 | 0.00 | 0.00 | 0.00 | 4 | 989.4 |
| 20260905173138 | 37 | 254 | 6.4 | 9.7 | 0.00 | 0.00 | 0.00 | 4 | 989.4 |
| 20260905172638 | 36 | 257 | 6.4 | 12.9 | 0.00 | 0.00 | 0.00 | 4 | 989.5 |
| 20260905172138 | 37 | 277 | 6.4 | 11.3 | 0.00 | 0.00 | 0.00 | 4 | 989.5 |
| 20260905171638 | 38 | 271 | 8.0 | 16.1 | 0.00 | 0.00 | 0.00 | 4 | 989.6 |
| 20260905171138 | 37 | 61 | 4.8 | 9.7 | 0.00 | 0.00 | 0.00 | 4 | 989.7 |
| 20260905170638 | 37 | 261 | 6.4 | 11.3 | 0.00 | 0.00 | 0.00 | 4 | 989.7 |
| 20260905170138 | 37 | 261 | 6.4 | 9.7 | 0.00 | 0.00 | 0.00 | 4 | 989.9 |
| 20260905165638 | 37 | 257 | 6.4 | 14.5 | 0.00 | 0.00 | 0.00 | 4 | 989.9 |
| 20260905165137 | 37 | 279 | 6.4 | 9.7 | 0.00 | 0.00 | 0.00 | 4 | 989.9 |
| 20260905164638 | 37 | 254 | 6.4 | 14.5 | 0.00 | 0.00 | 0.00 | 4 | 989.9 |
| 20260905164137 | 37 | 265 | 6.4 | 16.1 | 0.00 | 0.00 | 0.00 | 4 | 989.8 |
| 20260905163637 | 37 | 275 | 4.8 | 11.3 | 0.00 | 0.00 | 0.00 | 4 | 989.7 |
| 20260905163137 | 37 | 259 | 6.4 | 16.1 | 0.00 | 0.00 | 0.00 | 4 | 989.7 |
| 20260905162637 | 37 | 250 | 6.4 | 11.3 | 0.00 | 0.00 | 0.00 | 4 | 989.7 |
| 20260905162137 | 36 | 261 | 3.2 | 6.4 | 0.00 | 0.00 | 0.00 | 5 | 989.7 |
| 20260905161637 | 35 | 267 | 6.4 | 9.7 | 0.00 | 0.00 | 0.00 | 5 | 989.7 |
| 20260905161137 | 35 | 269 | 9.7 | 14.5 | 0.00 | 0.00 | 0.00 | 5 | 989.7 |
| 20260905160637 | 35 | 260 | 6.4 | 9.7 | 0.00 | 0.00 | 0.00 | 5 | 989.7 |
| 20260905160137 | 36 | 273 | 4.8 | 8.0 | 0.00 | 0.00 | 0.00 | 5 | 989.9 |
| 20260905155637 | 36 | 283 | 8.0 | 11.3 | 0.00 | 0.00 | 0.00 | 4 | 989.9 |
| 20260905155137 | 37 | 276 | 4.8 | 9.7 | 0.00 | 0.00 | 0.00 | 5 | 989.7 |
| 20260905154637 | 36 | 273 | 4.8 | 9.7 | 0.00 | 0.00 | 0.00 | 5 | 989.7 |
| 20260905154137 | -17 | 225 | 4.8 | 4.8 | 0.00 | 0.00 | 0.00 | 100 | |
| 20260905153637 | 36 | 270 | 8.0 | 11.3 | 0.00 | 0.00 | 0.00 | 5 | 989.7 |
| 20260905153137 | 36 | 272 | 4.8 | 6.4 | 0.00 | 0.00 | 0.00 | 5 | 989.6 |
| 20260905152637 | 36 | 275 | 4.8 | 6.4 | 0.00 | 0.00 | 0.00 | 5 | 989.5 |
| 20260905152137 | 36 | 280 | 4.8 | 6.4 | 0.00 | 0.00 | 0.00 | 5 | 989.5 |
| 20260905151637 | 36 | 271 | 3.2 | 8.0 | 0.00 | 0.00 | 0.00 | 5 | 989.4 |
| 20260905151137 | 35 | 277 | 4.8 | 6.4 | 0.00 | 0.00 | 0.00 | 5 | 989.4 |
| 20260905150637 | 35 | 274 | 6.4 | 11.3 | 0.00 | 0.00 | 0.00 | 5 | 989.4 |
| 20260905150137 | 35 | 274 | 6.4 | 9.7 | 0.00 | 0.00 | 0.00 | 5 | 989.4 |
| 20260905145637 | 36 | 271 | 4.8 | 8.0 | 0.00 | 0.00 | 0.00 | 5 | 989.4 |
| 20260905145137 | 36 | 279 | 3.2 | 6.4 | 0.00 | 0.00 | 0.00 | 5 | 989.4 |
| 20260905144637 | 35 | 280 | 4.8 | 8.0 | 0.00 | 0.00 | 0.00 | 5 | 989.4 |
| 20260905144308 | 35 | 293 | 3.2 | 6.4 | 0.00 | 0.00 | 0.00 | 5 | 989.7 |
| 20260905144137 | 35 | 293 | 3.2 | 6.4 | 0.00 | 0.00 | 0.00 | 5 | 989.7 |
| 20260905143637 | 33 | 293 | 3.2 | 4.8 | 0.00 | 0.00 | 0.00 | 5 | 989.7 |
| 20260905143308 | 33 | 270 | 6.4 | 8.0 | 0.00 | 0.00 | 0.00 | 5 | 989.7 |
| 20260905143137 | 33 | 270 | 6.4 | 8.0 | 0.00 | 0.00 | 0.00 | 5 | 989.7 |
| 20260905142638 | 32 | 268 | 4.8 | 8.0 | 0.00 | 0.00 | 0.00 | 5 | 989.7 |
| 20260905142309 | 32 | 270 | 6.4 | 9.7 | 0.00 | 0.00 | 0.00 | 5 | 989.7 |
| 20260905142138 | 32 | 270 | 6.4 | 9.7 | 0.00 | 0.00 | 0.00 | 5 | 989.7 |
| 20260905141638 | 32 | 267 | 6.4 | 8.0 | 0.00 | 0.00 | 0.00 | 5 | 989.7 |
| 20260905141310 | 32 | 270 | 4.8 | 8.0 | 0.00 | 0.00 | 0.00 | 5 | 989.7 |
| 20260905141138 | 32 | 270 | 4.8 | 8.0 | 0.00 | 0.00 | 0.00 | 5 | 989.7 |
| 20260905140638 | 33 | 272 | 6.4 | 8.0 | 0.00 | 0.00 | 0.00 | 5 | 989.7 |
| 20260905140309 | 32 | 299 | 1.6 | 3.2 | 0.00 | 0.00 | 0.00 | 5 | 989.7 |
| 20260905140138 | 32 | 299 | 1.6 | 3.2 | 0.00 | 0.00 | 0.00 | 5 | 989.7 |
| 20260905135638 | 31 | 341 | 3.2 | 8.0 | 0.00 | 0.00 | 0.00 | 5 | 989.7 |
| 20260905135138 | 30 | 270 | 6.4 | 8.0 | 0.00 | 0.00 | 0.00 | 6 | 989.5 |
| 20260905134638 | 30 | 270 | 4.8 | 6.4 | 0.00 | 0.00 | 0.00 | 6 | 989.5 |
| 20260905134309 | 29 | 270 | 6.4 | 8.0 | 0.00 | 0.00 | 0.00 | 6 | 989.7 |
| 20260905134138 | 29 | 270 | 6.4 | 8.0 | 0.00 | 0.00 | 0.00 | 6 | 989.7 |
| 20260905133638 | 29 | 270 | 6.4 | 9.7 | 0.00 | 0.00 | 0.00 | 6 | 989.7 |
| 20260905133138 | 29 | 267 | 8.0 | 9.7 | 0.00 | 0.00 | 0.00 | 6 | 989.7 |
| 20260905132638 | 29 | 267 | 6.4 | 8.0 | 0.00 | 0.00 | 0.00 | 6 | 989.7 |
| 20260905132138 | 29 | 266 | 6.4 | 9.7 | 0.00 | 0.00 | 0.00 | 6 | 989.7 |
| 20260905131638 | 28 | 270 | 6.4 | 8.0 | 0.00 | 0.00 | 0.00 | 6 | 989.7 |
| 20260905131138 | 29 | 269 | 6.4 | 8.0 | 0.00 | 0.00 | 0.00 | 6 | 989.7 |
| 20260905130638 | 29 | 268 | 4.8 | 6.4 | 0.00 | 0.00 | 0.00 | 6 | 989.7 |
| 20260905130138 | 28 | 270 | 4.8 | 8.0 | 0.00 | 0.00 | 0.00 | 6 | 989.7 |
| 20260905125638 | 28 | 272 | 4.8 | 6.4 | 0.00 | 0.00 | 0.00 | 6 | 989.7 |
| 20260905125137 | 28 | 273 | 4.8 | 6.4 | 0.00 | 0.00 | 0.00 | 6 | 989.4 |
| 20260905124637 | 28 | 270 | 3.2 | 6.4 | 0.00 | 0.00 | 0.00 | 6 | 989.4 |
| 20260905124137 | 28 | 272 | 3.2 | 4.8 | 0.00 | 0.00 | 0.00 | 6 | 989.4 |
| 20260905123637 | 27 | 271 | 1.6 | 3.2 | 0.00 | 0.00 | 0.00 | 6 | 989.4 |
| 20260905123137 | 27 | 270 | 3.2 | 4.8 | 0.00 | 0.00 | 0.00 | 6 | 989.4 |
| 20260905122637 | 27 | 270 | 3.2 | 3.2 | 0.00 | 0.00 | 0.00 | 6 | 989.4 |
| 20260905122137 | 27 | 270 | 3.2 | 3.2 | 0.00 | 0.00 | 0.00 | 7 | 989.4 |
| 20260905121637 | 26 | 0 | 0.0 | 0.0 | 0.00 | 0.00 | 0.00 | 7 | 989.2 |
| 20260905121137 | 26 | 0 | 0.0 | 0.0 | 0.00 | 0.00 | 0.00 | 7 | 989.2 |
| 20260905120637 | 25 | 0 | 0.0 | 0.0 | 0.00 | 0.00 | 0.00 | 7 | 989.2 |
| 20260905120137 | 25 | 0 | 0.0 | 0.0 | 0.00 | 0.00 | 0.00 | 7 | 989.2 |
| 20260905115637 | 25 | 270 | 0.0 | 1.6 | 0.00 | 0.00 | 0.00 | 7 | 989.2 |
| 20260905115137 | 25 | 270 | 0.0 | 3.2 | 0.00 | 0.00 | 0.00 | 7 | 989.2 |
| 20260905114637 | 25 | 0 | 0.0 | 0.0 | 0.00 | 0.00 | 0.00 | 7 | 989.2 |
| 20260905114137 | 24 | 270 | 0.0 | 3.2 | 0.00 | 0.00 | 0.00 | 7 | 989.2 |